Time,TemperatureF,DewpointF,PressureIn,WindDirection,WindDirectionDegrees,WindSpeedMPH,WindSpeedGustMPH,Humidity,HourlyPrecipIn,Conditions,Clouds,dailyrainin,SoftwareType,DateUTC
2013-12-20 00:00:00,33.1,27.0,30.09,SW,222,0.0,0.0,79,0.00,,,0.00,weatherlink.com 1.10,2013-12-20 05:00:00,
2013-12-20 00:15:00,32.6,27.0,30.09,SW,222,0.0,0.0,81,0.00,,,0.00,weatherlink.com 1.10,2013-12-20 05:15:00,
2013-12-20 00:30:00,33.0,27.0,30.10,WSW,250,0.0,2.0,80,0.00,,,0.00,weatherlink.com 1.10,2013-12-20 05:30:00,
2013-12-20 00:45:00,33.7,28.0,30.10,WSW,250,0.0,0.0,78,0.00,,,0.00,weatherlink.com 1.10,2013-12-20 05:45:00,
2013-12-20 01:00:00,33.1,28.0,30.09,WSW,250,0.0,0.0,80,0.00,,,0.00,weatherlink.com 1.10,2013-12-20 06:00:00,
2013-12-20 01:15:00,32.7,28.0,30.10,WSW,250,0.0,0.0,81,0.00,,,0.00,weatherlink.com 1.10,2013-12-20 06:15:00,
2013-12-20 01:30:00,32.8,28.0,30.10,WSW,250,0.0,0.0,81,0.00,,,0.00,weatherlink.com 1.10,2013-12-20 06:30:00,
2013-12-20 01:45:00,32.1,27.0,30.10,WSW,250,0.0,0.0,82,0.00,,,0.00,weatherlink.com 1.10,2013-12-20 06:45:00,
2013-12-20 02:00:00,31.6,27.0,30.10,WSW,250,0.0,0.0,83,0.00,,,0.00,weatherlink.com 1.10,2013-12-20 07:00:00,
2013-12-20 02:15:00,31.3,27.0,30.10,WSW,250,0.0,0.0,84,0.00,,,0.00,weatherlink.com 1.10,2013-12-20 07:15:00,
2013-12-20 02:30:00,31.2,27.0,30.10,WSW,250,0.0,0.0,85,0.00,,,0.00,weatherlink.com 1.10,2013-12-20 07:30:00,
2013-12-20 02:45:00,31.1,27.0,30.11,WSW,250,0.0,0.0,85,0.00,,,0.00,weatherlink.com 1.10,2013-12-20 07:45:00,
2013-12-20 03:00:00,31.0,27.0,30.10,WSW,250,0.0,0.0,85,0.00,,,0.00,weatherlink.com 1.10,2013-12-20 08:00:00,
2013-12-20 03:15:00,30.7,27.0,30.11,WSW,250,0.0,0.0,86,0.00,,,0.00,weatherlink.com 1.10,2013-12-20 08:15:00,
2013-12-20 03:30:00,30.2,27.0,30.10,WSW,250,0.0,0.0,86,0.00,,,0.00,weatherlink.com 1.10,2013-12-20 08:30:00,
2013-12-20 03:45:00,30.1,27.0,30.11,WSW,250,0.0,0.0,87,0.00,,,0.00,weatherlink.com 1.10,2013-12-20 08:45:00,
2013-12-20 04:01:00,29.7,26.0,30.11,WSW,250,0.0,0.0,87,0.00,,,0.00,weatherlink.com 1.10,2013-12-20 09:01:00,
2013-12-20 04:15:00,29.8,27.0,30.10,WSW,250,0.0,0.0,88,0.00,,,0.00,weatherlink.com 1.10,2013-12-20 09:15:00,
2013-12-20 04:30:00,29.8,27.0,30.11,WSW,250,0.0,0.0,88,0.00,,,0.00,weatherlink.com 1.10,2013-12-20 09:30:00,
2013-12-20 04:45:00,30.2,27.0,30.10,WSW,250,0.0,0.0,88,0.00,,,0.00,weatherlink.com 1.10,2013-12-20 09:45:00,
2013-12-20 05:00:00,30.6,28.0,30.10,WSW,250,0.0,0.0,88,0.00,,,0.00,weatherlink.com 1.10,2013-12-20 10:00:00,
2013-12-20 05:15:00,30.9,28.0,30.10,WSW,250,0.0,0.0,88,0.00,,,0.00,weatherlink.com 1.10,2013-12-20 10:15:00,
2013-12-20 05:30:00,31.1,28.0,30.10,WSW,250,0.0,0.0,88,0.00,,,0.00,weatherlink.com 1.10,2013-12-20 10:30:00,
2013-12-20 05:45:00,31.4,28.0,30.10,WSW,250,0.0,0.0,88,0.00,,,0.00,weatherlink.com 1.10,2013-12-20 10:45:00,
2013-12-20 06:00:00,31.7,29.0,30.10,WSW,250,0.0,0.0,88,0.00,,,0.00,weatherlink.com 1.10,2013-12-20 11:00:00,
2013-12-20 06:15:00,32.0,29.0,30.10,WSW,250,0.0,0.0,87,0.00,,,0.00,weatherlink.com 1.10,2013-12-20 11:15:00,
2013-12-20 06:30:00,31.8,28.0,30.10,WSW,250,0.0,0.0,87,0.00,,,0.00,weatherlink.com 1.10,2013-12-20 11:30:00,
2013-12-20 06:45:00,31.4,28.0,30.10,WSW,250,0.0,0.0,87,0.00,,,0.00,weatherlink.com 1.10,2013-12-20 11:45:00,
2013-12-20 07:00:00,31.2,28.0,30.09,WSW,250,0.0,0.0,88,0.00,,,0.00,weatherlink.com 1.10,2013-12-20 12:00:00,
2013-12-20 07:15:00,30.8,28.0,30.09,WSW,250,0.0,1.0,89,0.00,,,0.00,weatherlink.com 1.10,2013-12-20 12:15:00,
2013-12-20 07:30:00,30.5,28.0,30.09,WSW,250,0.0,0.0,89,0.00,,,0.00,weatherlink.com 1.10,2013-12-20 12:30:00,
2013-12-20 07:45:00,30.5,28.0,30.08,WSW,250,0.0,0.0,89,0.00,,,0.00,weatherlink.com 1.10,2013-12-20 12:45:00,
2013-12-20 08:00:00,31.4,29.0,30.08,WSW,250,0.0,0.0,89,0.00,,,0.00,weatherlink.com 1.10,2013-12-20 13:00:00,
2013-12-20 08:15:00,32.5,30.0,30.07,WSW,250,0.0,1.0,89,0.00,,,0.00,weatherlink.com 1.10,2013-12-20 13:15:00,
2013-12-20 08:30:00,33.7,30.0,30.08,WSW,250,0.0,0.0,86,0.00,,,0.00,weatherlink.com 1.10,2013-12-20 13:30:00,
2013-12-20 08:45:00,36.4,32.0,30.07,WSW,250,0.0,0.0,83,0.00,,,0.00,weatherlink.com 1.10,2013-12-20 13:45:00,
2013-12-20 09:00:00,39.7,33.0,30.07,ESE,118,0.0,1.0,76,0.00,,,0.00,weatherlink.com 1.10,2013-12-20 14:00:00,
2013-12-20 09:16:00,41.5,32.0,30.06,SW,214,0.0,1.0,70,0.01,,,0.01,weatherlink.com 1.10,2013-12-20 14:16:00,
2013-12-20 09:31:00,42.3,33.0,30.05,West,266,0.0,1.0,70,0.01,,,0.01,weatherlink.com 1.10,2013-12-20 14:31:00,
2013-12-20 09:46:00,43.4,34.0,30.05,SE,146,0.0,1.0,69,0.02,,,0.02,weatherlink.com 1.10,2013-12-20 14:46:00,
2013-12-20 10:01:00,44.8,35.0,30.05,ESE,112,0.0,1.0,69,0.04,,,0.04,weatherlink.com 1.10,2013-12-20 15:01:00,
2013-12-20 10:16:00,45.2,36.0,30.04,SSW,205,0.0,3.0,69,0.04,,,0.05,weatherlink.com 1.10,2013-12-20 15:16:00,
2013-12-20 10:31:00,45.8,36.0,30.03,East,99,0.0,4.0,69,0.06,,,0.07,weatherlink.com 1.10,2013-12-20 15:31:00,
2013-12-20 10:46:00,47.3,36.0,30.01,ESE,107,2.0,7.0,66,0.08,,,0.10,weatherlink.com 1.10,2013-12-20 15:46:00,
2013-12-20 11:01:00,47.6,37.0,29.99,SE,126,0.0,5.0,66,0.08,,,0.12,weatherlink.com 1.10,2013-12-20 16:01:00,
2013-12-20 11:16:00,48.8,37.0,29.98,SSW,210,0.0,4.0,64,0.09,,,0.14,weatherlink.com 1.10,2013-12-20 16:16:00,
2013-12-20 11:31:00,50.2,37.0,29.96,SSE,159,1.0,5.0,62,0.08,,,0.16,weatherlink.com 1.10,2013-12-20 16:31:00,
2013-12-20 11:46:00,51.0,37.0,29.95,SW,223,0.0,3.0,59,0.08,,,0.18,weatherlink.com 1.10,2013-12-20 16:46:00,
2013-12-20 12:01:00,51.0,36.0,29.94,SSW,200,1.0,4.0,58,0.07,,,0.19,weatherlink.com 1.10,2013-12-20 17:01:00,
2013-12-20 12:16:00,51.3,36.0,29.94,WSW,249,4.0,6.0,57,0.06,,,0.20,weatherlink.com 1.10,2013-12-20 17:16:00,
2013-12-20 12:31:00,51.7,37.0,29.93,ESE,121,0.0,9.0,57,0.05,,,0.21,weatherlink.com 1.10,2013-12-20 17:31:00,
2013-12-20 12:46:00,52.5,37.0,29.92,WSW,239,1.0,4.0,55,0.03,,,0.21,weatherlink.com 1.10,2013-12-20 17:46:00,
2013-12-20 13:01:00,53.5,36.0,29.91,West,278,2.0,5.0,52,0.02,,,0.21,weatherlink.com 1.10,2013-12-20 18:01:00,
2013-12-20 13:16:00,53.8,35.0,29.91,South,181,2.0,7.0,50,0.01,,,0.21,weatherlink.com 1.10,2013-12-20 18:16:00,
2013-12-20 13:31:00,54.1,36.0,29.91,SW,216,2.0,7.0,50,0.00,,,0.21,weatherlink.com 1.10,2013-12-20 18:31:00,
2013-12-20 13:46:00,54.2,35.0,29.89,SW,214,2.0,8.0,49,0.00,,,0.21,weatherlink.com 1.10,2013-12-20 18:46:00,
2013-12-20 14:01:00,53.7,36.0,29.90,WSW,257,1.0,4.0,51,0.00,,,0.21,weatherlink.com 1.10,2013-12-20 19:01:00,
2013-12-20 14:16:00,53.2,36.0,29.90,West,272,0.0,2.0,52,0.00,,,0.21,weatherlink.com 1.10,2013-12-20 19:16:00,
2013-12-20 14:31:00,52.8,35.0,29.91,South,191,0.0,4.0,51,0.00,,,0.21,weatherlink.com 1.10,2013-12-20 19:31:00,
2013-12-20 14:46:00,52.7,35.0,29.90,East,94,0.0,1.0,51,0.00,,,0.21,weatherlink.com 1.10,2013-12-20 19:46:00,
2013-12-20 15:01:00,52.7,34.0,29.90,SSE,163,0.0,3.0,50,0.00,,,0.21,weatherlink.com 1.10,2013-12-20 20:01:00,
2013-12-20 15:16:00,52.1,34.0,29.90,West,265,2.0,5.0,51,0.00,,,0.21,weatherlink.com 1.10,2013-12-20 20:16:00,
2013-12-20 15:32:00,51.6,34.0,29.90,West,259,2.0,4.0,52,0.00,,,0.21,weatherlink.com 1.10,2013-12-20 20:32:00,
2013-12-20 15:47:00,51.2,34.0,29.90,SW,223,0.0,5.0,53,0.00,,,0.21,weatherlink.com 1.10,2013-12-20 20:47:00,
2013-12-20 16:02:00,50.5,34.0,29.90,SSE,155,0.0,2.0,54,0.00,,,0.21,weatherlink.com 1.10,2013-12-20 21:02:00,
2013-12-20 16:17:00,50.0,34.0,29.90,SW,221,3.0,3.0,55,0.00,,,0.21,weatherlink.com 1.10,2013-12-20 21:17:00,
2013-12-20 16:32:00,49.5,34.0,29.90,WNW,296,0.0,1.0,56,0.00,,,0.21,weatherlink.com 1.10,2013-12-20 21:32:00,
2013-12-20 16:47:00,49.1,34.0,29.90,South,176,0.0,4.0,57,0.00,,,0.21,weatherlink.com 1.10,2013-12-20 21:47:00,
2013-12-20 17:02:00,48.5,34.0,29.91,WSW,237,0.0,6.0,57,0.00,,,0.21,weatherlink.com 1.10,2013-12-20 22:02:00,
2013-12-20 17:17:00,48.1,34.0,29.91,WSW,244,1.0,6.0,58,0.00,,,0.21,weatherlink.com 1.10,2013-12-20 22:17:00,
2013-12-20 17:32:00,47.4,34.0,29.91,SSW,195,0.0,4.0,59,0.00,,,0.21,weatherlink.com 1.10,2013-12-20 22:32:00,
2013-12-20 17:47:00,46.8,33.0,29.91,SW,214,2.0,4.0,60,0.00,,,0.21,weatherlink.com 1.10,2013-12-20 22:47:00,
2013-12-20 18:02:00,46.4,33.0,29.91,WNW,296,0.0,4.0,61,0.00,,,0.21,weatherlink.com 1.10,2013-12-20 23:02:00,
2013-12-20 18:17:00,46.1,34.0,29.91,NNE,27,0.0,2.0,62,0.00,,,0.21,weatherlink.com 1.10,2013-12-20 23:17:00,
2013-12-20 18:32:00,46.2,34.0,29.91,WSW,254,2.0,8.0,62,0.00,,,0.21,weatherlink.com 1.10,2013-12-20 23:32:00,
2013-12-20 18:47:00,46.3,34.0,29.91,WSW,237,0.0,7.0,62,0.00,,,0.21,weatherlink.com 1.10,2013-12-20 23:47:00,
2013-12-20 19:02:00,46.1,34.0,29.92,SW,217,2.0,5.0,63,0.00,,,0.21,weatherlink.com 1.10,2013-12-21 00:02:00,
2013-12-20 19:17:00,46.0,34.0,29.93,WSW,249,1.0,4.0,63,0.00,,,0.21,weatherlink.com 1.10,2013-12-21 00:17:00,
2013-12-20 19:32:00,45.7,34.0,29.92,South,184,0.0,5.0,64,0.00,,,0.21,weatherlink.com 1.10,2013-12-21 00:32:00,
2013-12-20 19:47:00,45.0,34.0,29.92,SW,217,0.0,4.0,66,0.00,,,0.21,weatherlink.com 1.10,2013-12-21 00:47:00,
2013-12-20 20:02:00,44.8,34.0,29.94,WSW,245,0.0,5.0,66,0.00,,,0.21,weatherlink.com 1.10,2013-12-21 01:02:00,
2013-12-20 20:17:00,44.3,34.0,29.93,SE,140,0.0,9.0,66,0.00,,,0.21,weatherlink.com 1.10,2013-12-21 01:17:00,
2013-12-20 20:32:00,43.9,34.0,29.93,SW,228,0.0,4.0,67,0.00,,,0.21,weatherlink.com 1.10,2013-12-21 01:32:00,
2013-12-20 20:47:00,43.7,34.0,29.93,SW,219,0.0,3.0,68,0.00,,,0.21,weatherlink.com 1.10,2013-12-21 01:47:00,
2013-12-20 21:02:00,43.5,34.0,29.94,SW,221,3.0,4.0,68,0.00,,,0.21,weatherlink.com 1.10,2013-12-21 02:02:00,
2013-12-20 21:17:00,43.3,33.0,29.94,SW,230,0.0,3.0,68,0.00,,,0.21,weatherlink.com 1.10,2013-12-21 02:17:00,
2013-12-20 21:32:00,43.2,33.0,29.94,SSW,207,0.0,5.0,68,0.00,,,0.21,weatherlink.com 1.10,2013-12-21 02:32:00,
2013-12-20 21:47:00,43.2,33.0,29.95,SSW,208,1.0,4.0,68,0.00,,,0.21,weatherlink.com 1.10,2013-12-21 02:47:00,
2013-12-20 22:02:00,43.1,34.0,29.94,SSE,156,1.0,3.0,69,0.00,,,0.21,weatherlink.com 1.10,2013-12-21 03:02:00,
2013-12-20 22:17:00,43.1,34.0,29.93,SE,140,0.0,3.0,69,0.00,,,0.21,weatherlink.com 1.10,2013-12-21 03:17:00,
2013-12-20 22:32:00,43.3,34.0,29.93,SW,226,0.0,4.0,69,0.00,,,0.21,weatherlink.com 1.10,2013-12-21 03:32:00,
2013-12-20 22:47:00,43.3,34.0,29.94,WSW,253,1.0,3.0,69,0.00,,,0.21,weatherlink.com 1.10,2013-12-21 03:47:00,
2013-12-20 23:02:00,43.3,34.0,29.93,SE,139,1.0,3.0,69,0.00,,,0.21,weatherlink.com 1.10,2013-12-21 04:02:00,
2013-12-20 23:17:00,43.7,34.0,29.93,SW,219,0.0,3.0,69,0.00,,,0.21,weatherlink.com 1.10,2013-12-21 04:17:00,
2013-12-20 23:32:00,43.9,34.0,29.94,SW,234,0.0,4.0,69,0.00,,,0.21,weatherlink.com 1.10,2013-12-21 04:32:00,
2013-12-20 23:47:00,43.9,34.0,29.93,SSW,211,1.0,3.0,69,0.00,,,0.21,weatherlink.com 1.10,2013-12-21 04:47:00,